Time;durP1;ratioP1;P1;durP2;ratioP2;P2;SDS_P1;SDS_P2;PMS_P1;PMS_P2;Temp;Humidity;BMP_temperature;BMP_pressure;BME280_temperature;BME280_humidity;BME280_pressure;Samples;Min_cycle;Max_cycle;Signal;HPM_P1;HPM_P2
2022/12/30 00:00:23;;;;;;;5.73;1.73;;;;;;;18.69;54.92;100239.28;5082672;28;20634;-65
2022/12/30 00:02:49;;;;;;;5.37;2.00;;;;;;;18.68;54.76;100235.63;5079896;28;20191;-65
2022/12/30 00:05:14;;;;;;;5.10;1.97;;;;;;;18.67;54.78;100233.94;5107545;28;20232;-65
2022/12/30 00:07:40;;;;;;;4.10;1.60;;;;;;;18.68;54.52;100231.94;5075782;28;20214;-65
2022/12/30 00:10:05;;;;;;;5.30;1.80;;;;;;;18.69;54.75;100228.69;5120793;28;20177;-65
2022/12/30 00:34:35;;;;;;;6.03;1.73;;;;;;;18.64;54.62;100251.91;5077730;28;20489;-65
2022/12/30 00:37:01;;;;;;;4.90;1.67;;;;;;;18.70;54.63;100244.63;5076710;28;20853;-65
2022/12/30 00:39:26;;;;;;;4.53;1.90;;;;;;;18.67;54.67;100248.25;5077349;28;20229;-65
2022/12/30 00:44:36;;;;;;;4.50;1.70;;;;;;;18.68;54.87;100252.78;5081512;28;20197;-65
2022/12/30 00:47:01;;;;;;;8.50;1.97;;;;;;;18.69;54.94;100262.16;5093547;28;20433;-66
2022/12/30 00:57:39;;;;;;;8.00;1.77;;;;;;;18.67;54.75;100251.13;5079260;28;20428;-65
2022/12/30 01:00:06;;;;;;;4.83;2.00;;;;;;;18.70;54.78;100258.94;5094732;28;20424;-65
2022/12/30 01:02:31;;;;;;;7.97;1.77;;;;;;;18.68;54.67;100254.81;5081672;28;20202;-66
2022/12/30 01:04:57;;;;;;;3.77;1.60;;;;;;;18.66;54.51;100258.03;5077399;28;20510;-65
2022/12/30 01:07:22;;;;;;;6.87;1.70;;;;;;;18.67;54.73;100256.03;5091506;28;20193;-65
2022/12/30 01:09:48;;;;;;;7.43;1.57;;;;;;;18.66;54.90;100262.97;5060671;28;20312;-65
2022/12/30 01:12:13;;;;;;;2.87;1.67;;;;;;;18.65;54.65;100261.28;5078738;28;20182;-65
2022/12/30 01:14:39;;;;;;;3.80;1.77;;;;;;;18.69;54.86;100256.44;5061095;28;20190;-65
2022/12/30 01:17:05;;;;;;;3.40;1.50;;;;;;;18.71;54.53;100266.31;5098766;28;20158;-65
2022/12/30 01:19:31;;;;;;;4.40;1.50;;;;;;;18.66;54.79;100266.63;5080444;28;20923;-65
2022/12/30 01:21:56;;;;;;;4.60;1.47;;;;;;;18.68;54.75;100255.66;5077982;28;20237;-65
2022/12/30 01:24:21;;;;;;;4.27;1.53;;;;;;;18.67;54.90;100258.88;5059402;28;20206;-65
2022/12/30 01:26:47;;;;;;;5.07;1.90;;;;;;;18.67;54.58;100262.56;5060024;28;20164;-64
2022/12/30 01:29:21;;;;;;;3.77;1.50;;;;;;;18.67;54.36;100258.88;5080384;28;20183;-65
2022/12/30 01:31:46;;;;;;;3.07;1.50;;;;;;;18.67;54.58;100264.59;5044143;28;20215;-65
2022/12/30 01:34:11;;;;;;;4.20;1.50;;;;;;;18.65;54.83;100267.84;5068093;28;20429;-65
2022/12/30 01:36:37;;;;;;;5.90;1.93;;;;;;;18.70;54.45;100273.22;5078270;28;20202;-65
2022/12/30 01:39:03;;;;;;;5.17;1.77;;;;;;;18.68;54.58;100272.81;5059954;28;20927;-65
2022/12/30 01:41:28;;;;;;;3.83;1.53;;;;;;;18.65;54.32;100267.00;5078694;28;20225;-65
2022/12/30 01:43:53;;;;;;;4.23;1.83;;;;;;;18.67;54.69;100276.03;5080017;28;20229;-64
2022/12/30 01:46:24;;;;;;;6.33;1.63;;;;;;;18.65;54.60;100273.56;5077561;28;20179;-65
2022/12/30 01:48:50;;;;;;;3.30;1.53;;;;;;;18.66;54.96;100275.19;5081815;28;20549;-65
2022/12/30 01:51:18;;;;;;;4.57;1.80;;;;;;;18.65;54.82;100276.41;5060458;28;20401;-65
2022/12/30 01:53:49;;;;;;;5.13;1.67;;;;;;;18.66;54.47;100286.63;5050245;28;20421;-65
2022/12/30 01:56:27;;;;;;;4.60;1.60;;;;;;;18.69;54.62;100288.75;5063803;28;20837;-65
2022/12/30 01:58:56;;;;;;;3.77;1.57;;;;;;;18.70;54.83;100298.13;5060549;28;20812;-66
2022/12/30 02:01:21;;;;;;;2.47;1.20;;;;;;;18.68;54.55;100295.69;5051324;28;20467;-65
2022/12/30 02:03:52;;;;;;;3.37;1.50;;;;;;;18.67;54.76;100296.88;5100107;28;20463;-65
2022/12/30 02:06:19;;;;;;;4.23;1.60;;;;;;;18.66;54.76;100285.84;5102902;28;20173;-65
2022/12/30 02:08:44;;;;;;;2.93;1.30;;;;;;;18.66;54.86;100283.78;5069450;28;20436;-65
2022/12/30 02:11:09;;;;;;;2.60;1.43;;;;;;;18.67;54.46;100285.44;5052386;28;20447;-66
2022/12/30 02:13:35;;;;;;;3.53;1.40;;;;;;;18.65;54.60;100282.13;5084417;28;20175;-65
2022/12/30 02:16:19;;;;;;;3.00;1.30;;;;;;;18.64;54.83;100274.78;5099126;28;20315;-65
2022/12/30 02:18:44;;;;;;;3.00;1.40;;;;;;;18.65;54.59;100267.00;5083712;28;20701;-64
2022/12/30 02:21:27;;;;;;;3.80;1.57;;;;;;;18.64;54.91;100271.06;5110603;28;20427;-64
2022/12/30 02:24:14;;;;;;;4.50;1.40;;;;;;;18.64;54.60;100282.50;5079012;28;20285;-65
2022/12/30 02:27:04;;;;;;;2.73;1.50;;;;;;;18.65;54.73;100289.88;5081334;28;20401;-65
2022/12/30 02:29:41;;;;;;;4.13;1.30;;;;;;;18.67;54.70;100294.00;5081197;28;20425;-64
2022/12/30 02:32:18;;;;;;;3.13;1.50;;;;;;;18.69;54.75;100290.78;5079880;28;20466;-64
2022/12/30 02:35:11;;;;;;;3.40;1.47;;;;;;;18.67;54.67;100294.00;5083520;28;20436;-64
2022/12/30 02:37:50;;;;;;;3.93;1.43;;;;;;;18.67;54.58;100294.00;5048934;28;20432;-64
2022/12/30 02:40:27;;;;;;;2.80;1.33;;;;;;;18.66;54.59;100292.34;5050461;28;20472;-65
2022/12/30 02:45:51;;;;;;;3.47;1.40;;;;;;;18.64;54.72;100291.09;5073644;28;20594;-65
2022/12/30 02:48:21;;;;;;;3.23;1.60;;;;;;;18.67;54.75;100296.06;5063315;28;20888;-64
2022/12/30 02:53:32;;;;;;;4.20;1.83;;;;;;;18.65;54.73;100296.44;5051770;28;21037;-65
2022/12/30 02:55:57;;;;;;;2.57;1.20;;;;;;;18.64;54.75;100293.94;5048845;28;20433;-65
2022/12/30 02:58:25;;;;;;;2.43;1.40;;;;;;;18.64;54.48;100300.50;5091691;28;20844;-65
2022/12/30 03:04:04;;;;;;;3.27;1.30;;;;;;;18.64;54.55;100300.50;5083280;28;20616;-65
2022/12/30 03:06:50;;;;;;;2.73;1.17;;;;;;;18.65;54.61;100296.44;5101810;28;20423;-65
2022/12/30 03:12:43;;;;;;;3.13;1.30;;;;;;;18.64;54.63;100299.66;5085699;28;20447;-65
2022/12/30 03:15:17;;;;;;;3.50;1.30;;;;;;;18.65;54.64;100290.72;5079849;28;20522;-65
2022/12/30 03:17:42;;;;;;;3.00;1.40;;;;;;;18.63;54.61;100298.88;5067302;28;20415;-65
2022/12/30 03:20:10;;;;;;;2.90;1.40;;;;;;;18.66;55.05;100295.22;5066628;28;20433;-65
2022/12/30 03:28:05;;;;;;;3.50;1.20;;;;;;;18.65;54.51;100299.28;5081392;28;20436;-65
2022/12/30 03:30:32;;;;;;;2.33;1.30;;;;;;;18.66;54.43;100303.00;5102040;28;20420;-65
2022/12/30 03:32:58;;;;;;;3.57;1.50;;;;;;;18.66;54.66;100298.06;5081501;28;20428;-65
2022/12/30 03:35:23;;;;;;;2.67;1.30;;;;;;;18.65;54.64;100293.56;5083737;28;20907;-65
2022/12/30 03:37:49;;;;;;;4.33;1.70;;;;;;;18.68;54.42;100292.81;5084115;28;20165;-65
2022/12/30 03:40:41;;;;;;;2.83;1.30;;;;;;;18.65;54.63;100290.72;5066892;28;20293;-65
2022/12/30 03:43:07;;;;;;;3.83;1.63;;;;;;;18.66;54.54;100288.69;5084873;28;20799;-65
2022/12/30 03:45:32;;;;;;;2.97;1.30;;;;;;;18.66;54.40;100283.78;5064995;28;20431;-65
2022/12/30 03:47:57;;;;;;;4.93;1.50;;;;;;;18.66;54.76;100280.13;5101097;28;20616;-65
2022/12/30 03:50:23;;;;;;;3.87;1.40;;;;;;;18.66;54.83;100277.25;5084540;28;20170;-65
2022/12/30 03:52:48;;;;;;;3.20;1.17;;;;;;;18.67;54.71;100281.75;5067346;28;20213;-65
2022/12/30 03:55:14;;;;;;;3.43;1.33;;;;;;;18.66;54.83;100263.75;5110833;28;20181;-65
2022/12/30 03:57:39;;;;;;;2.60;1.50;;;;;;;18.65;54.43;100261.28;5080859;28;20250;-65
2022/12/30 04:00:11;;;;;;;2.47;1.00;;;;;;;18.66;54.26;100258.03;5081451;28;20159;-65
2022/12/30 04:02:38;;;;;;;4.00;1.60;;;;;;;18.66;54.68;100252.31;5066067;28;20202;-64
2022/12/30 04:05:04;;;;;;;3.67;1.17;;;;;;;18.65;54.42;100259.25;5083321;28;20456;-64
2022/12/30 04:07:29;;;;;;;2.80;1.80;;;;;;;18.65;54.44;100253.53;5083944;28;20444;-65
2022/12/30 04:09:55;;;;;;;4.00;1.40;;;;;;;18.65;54.43;100253.53;5073939;28;20420;-65
2022/12/30 04:12:20;;;;;;;3.27;1.60;;;;;;;18.65;54.44;100262.13;5112455;28;20182;-65
2022/12/30 04:14:46;;;;;;;2.90;1.03;;;;;;;18.66;54.63;100265.81;5074639;28;20190;-65
2022/12/30 04:17:11;;;;;;;2.30;1.30;;;;;;;18.64;54.53;100263.34;5101944;28;20162;-64
2022/12/30 04:19:36;;;;;;;3.10;1.50;;;;;;;18.66;54.75;100263.75;5101096;28;20179;-65
2022/12/30 04:22:02;;;;;;;3.47;1.30;;;;;;;18.65;54.38;100253.53;5110069;28;20204;-65
2022/12/30 04:24:27;;;;;;;2.30;1.40;;;;;;;18.68;54.30;100254.81;5121659;28;20239;-65
2022/12/30 04:26:53;;;;;;;2.60;1.47;;;;;;;18.65;54.35;100244.97;5112284;28;20170;-65
2022/12/30 04:29:19;;;;;;;3.30;1.27;;;;;;;18.66;54.71;100240.09;5101346;28;20174;-65
2022/12/30 04:31:44;;;;;;;2.30;1.10;;;;;;;18.66;54.60;100243.75;5100275;28;20173;-64
2022/12/30 04:34:12;;;;;;;6.30;1.53;;;;;;;18.67;54.62;100245.38;5067500;28;20171;-64
2022/12/30 04:36:37;;;;;;;3.10;1.20;;;;;;;18.67;54.42;100253.97;5062223;28;20203;-65
2022/12/30 04:39:03;;;;;;;2.27;1.33;;;;;;;18.65;54.53;100247.81;5083197;28;20487;-65
2022/12/30 04:41:28;;;;;;;2.63;1.30;;;;;;;18.69;54.45;100250.72;5079758;28;20219;-66
2022/12/30 04:43:54;;;;;;;4.03;1.50;;;;;;;18.67;54.35;100250.31;5080068;28;20198;-65
2022/12/30 04:46:19;;;;;;;2.37;1.17;;;;;;;18.67;54.54;100253.16;5094172;28;20208;-65
2022/12/30 04:48:44;;;;;;;3.50;1.60;;;;;;;18.65;54.43;100247.81;5099150;28;20163;-65
2022/12/30 04:51:10;;;;;;;2.90;1.20;;;;;;;18.67;54.32;100253.97;5081461;28;20186;-65
2022/12/30 04:53:35;;;;;;;2.87;1.53;;;;;;;18.65;54.23;100247.81;5075452;28;20174;-65
2022/12/30 04:56:01;;;;;;;2.23;1.10;;;;;;;18.69;54.34;100245.00;5078849;28;20163;-65
2022/12/30 04:58:26;;;;;;;3.30;1.40;;;;;;;18.67;54.15;100256.81;5093676;28;20252;-65
2022/12/30 05:00:52;;;;;;;2.37;1.40;;;;;;;18.68;54.39;100255.66;5098455;28;20182;-65
2022/12/30 05:03:17;;;;;;;2.60;1.27;;;;;;;18.71;54.25;100251.19;5082891;28;20604;-65
2022/12/30 05:05:43;;;;;;;2.80;1.83;;;;;;;18.70;54.33;100255.25;5071531;28;20209;-64
2022/12/30 05:08:08;;;;;;;4.20;1.17;;;;;;;18.69;54.37;100251.56;5062364;28;20171;-65
2022/12/30 05:10:34;;;;;;;3.20;1.67;;;;;;;18.67;54.40;100256.81;5080379;28;20174;-65
2022/12/30 05:13:00;;;;;;;3.60;1.40;;;;;;;18.66;54.25;100258.03;5046488;28;20160;-65
2022/12/30 05:15:25;;;;;;;1.70;0.90;;;;;;;18.69;54.37;100260.16;5082290;28;20436;-65
2022/12/30 05:17:51;;;;;;;1.97;1.00;;;;;;;18.70;54.18;100258.09;5062843;28;20168;-65
2022/12/30 05:20:16;;;;;;;3.67;1.23;;;;;;;18.71;54.31;100262.63;5076551;28;20193;-65
2022/12/30 05:22:42;;;;;;;1.90;1.10;;;;;;;18.70;54.28;100264.66;5082295;28;20252;-65
2022/12/30 05:27:52;;;;;;;2.73;0.93;;;;;;;18.70;54.49;100252.38;5080553;28;20194;-64
2022/12/30 05:30:17;;;;;;;2.53;1.23;;;;;;;18.69;54.42;100254.44;5083088;28;20449;-65
2022/12/30 05:32:43;;;;;;;2.37;1.03;;;;;;;18.68;54.44;100258.50;5081036;28;20159;-65
2022/12/30 05:35:09;;;;;;;2.13;1.20;;;;;;;18.70;54.24;100261.78;5050205;28;20183;-65
2022/12/30 05:37:34;;;;;;;5.13;0.97;;;;;;;18.71;54.15;100260.59;5066532;28;20155;-65
2022/12/30 05:39:59;;;;;;;3.10;1.10;;;;;;;18.70;54.07;100252.38;5066459;28;20317;-65
2022/12/30 05:42:25;;;;;;;3.23;1.07;;;;;;;18.66;54.26;100252.31;5083582;28;20151;-64
2022/12/30 05:44:50;;;;;;;2.20;0.90;;;;;;;18.68;54.46;100255.66;5081905;28;20185;-65
2022/12/30 05:47:16;;;;;;;3.50;0.93;;;;;;;18.70;54.15;100263.81;5103493;28;20159;-65
2022/12/30 05:49:41;;;;;;;2.13;1.13;;;;;;;18.72;54.13;100261.41;5081081;28;20208;-65
2022/12/30 05:52:06;;;;;;;2.93;1.10;;;;;;;18.71;54.21;100263.44;5084446;28;20166;-65
2022/12/30 05:54:32;;;;;;;2.27;1.10;;;;;;;18.71;54.21;100268.34;5081482;28;20201;-65
2022/12/30 05:56:57;;;;;;;3.00;1.20;;;;;;;18.70;54.21;100261.78;5065251;28;20183;-66
2022/12/30 05:59:23;;;;;;;2.53;1.13;;;;;;;18.70;54.04;100260.97;5095602;28;20162;-65
2022/12/30 06:01:49;;;;;;;2.60;1.10;;;;;;;18.72;54.01;100262.22;5104847;28;20236;-65
2022/12/30 06:04:16;;;;;;;2.47;1.13;;;;;;;18.70;54.26;100258.94;5094892;28;20206;-65
2022/12/30 06:06:41;;;;;;;2.67;1.20;;;;;;;18.70;54.50;100258.09;5099331;28;20200;-65
2022/12/30 06:09:08;;;;;;;2.20;1.20;;;;;;;18.70;54.17;100270.38;5113325;28;20426;-65
2022/12/30 06:11:33;;;;;;;2.63;1.10;;;;;;;18.72;53.91;100273.66;5124347;28;20154;-65
2022/12/30 06:13:59;;;;;;;2.33;1.30;;;;;;;18.73;54.12;100277.38;5100204;28;20434;-64
2022/12/30 06:16:24;;;;;;;3.00;1.30;;;;;;;18.73;54.40;100283.09;5081255;28;20189;-65
2022/12/30 06:18:50;;;;;;;2.93;1.33;;;;;;;18.71;54.17;100272.03;5104374;28;20163;-65
2022/12/30 06:21:15;;;;;;;3.20;1.23;;;;;;;18.73;54.15;100271.66;5106025;28;20170;-65
2022/12/30 06:23:41;;;;;;;2.47;1.10;;;;;;;18.74;54.11;100277.00;5106267;28;20185;-65
2022/12/30 06:26:06;;;;;;;4.10;1.40;;;;;;;18.75;54.18;100272.91;5082908;28;20209;-65
2022/12/30 06:28:31;;;;;;;2.53;1.10;;;;;;;18.76;54.10;100280.28;5083704;28;20155;-65
2022/12/30 06:30:57;;;;;;;2.33;1.03;;;;;;;18.73;54.13;100283.91;5082918;28;20167;-64
2022/12/30 06:33:23;;;;;;;2.40;1.10;;;;;;;18.75;53.99;100286.38;5083469;28;20164;-65
2022/12/30 06:35:48;;;;;;;3.43;1.23;;;;;;;18.72;54.02;100279.38;5069595;28;21134;-65
2022/12/30 06:38:14;;;;;;;2.37;1.10;;;;;;;18.71;54.03;100276.94;5083887;28;20183;-65
2022/12/30 06:40:39;;;;;;;2.07;0.90;;;;;;;18.71;54.03;100277.75;5048840;28;20246;-65
2022/12/30 06:43:04;;;;;;;2.27;1.10;;;;;;;18.76;54.19;100273.75;5051000;28;20218;-65
2022/12/30 06:45:30;;;;;;;2.83;1.03;;;;;;;18.77;54.05;100269.69;5065620;28;20240;-64
2022/12/30 06:47:55;;;;;;;1.70;0.90;;;;;;;18.75;54.20;100272.91;5002742;28;20644;-64
2022/12/30 06:50:21;;;;;;;1.90;1.00;;;;;;;18.74;54.04;100271.25;5001164;28;20162;-66
2022/12/30 06:52:46;;;;;;;3.40;1.10;;;;;;;18.76;54.21;100268.84;4986286;28;20186;-65
2022/12/30 06:55:12;;;;;;;1.90;0.93;;;;;;;18.75;54.02;100267.19;5067403;28;20655;-65
2022/12/30 06:57:37;;;;;;;2.40;1.40;;;;;;;18.76;53.89;100280.28;5067558;28;20195;-65
2022/12/30 07:00:04;;;;;;;3.43;1.10;;;;;;;18.78;53.94;100266.44;5048069;28;20186;-64
2022/12/30 07:02:29;;;;;;;3.30;1.47;;;;;;;18.77;54.18;100263.97;5031071;28;20221;-65
2022/12/30 07:04:55;;;;;;;3.27;1.03;;;;;;;18.76;53.78;100268.03;5089382;28;20794;-65
2022/12/30 07:07:20;;;;;;;2.57;1.03;;;;;;;18.73;54.09;100263.06;5071731;28;20182;-65
2022/12/30 07:09:46;;;;;;;2.17;1.00;;;;;;;18.71;53.93;100262.63;4979759;28;20182;-65
2022/12/30 07:12:11;;;;;;;1.97;0.90;;;;;;;18.72;54.24;100253.66;4979669;28;20178;-65
2022/12/30 07:14:36;;;;;;;2.50;1.13;;;;;;;18.76;54.16;100256.59;5058625;28;20185;-65
2022/12/30 07:17:02;;;;;;;2.70;1.00;;;;;;;18.74;54.19;100256.97;4993414;28;20171;-65
2022/12/30 07:19:27;;;;;;;2.20;0.90;;;;;;;18.76;53.80;100265.16;5048049;28;20174;-65
2022/12/30 07:21:53;;;;;;;3.50;1.20;;;;;;;18.77;54.07;100263.97;4980563;28;20750;-65
2022/12/30 07:24:18;;;;;;;2.80;1.30;;;;;;;18.75;54.03;100267.19;4982820;28;20199;-65
2022/12/30 07:26:44;;;;;;;2.03;1.03;;;;;;;18.76;54.16;100256.59;5057119;28;20178;-65
2022/12/30 07:29:10;;;;;;;2.43;1.00;;;;;;;18.74;54.04;100248.38;5031728;28;20665;-65
2022/12/30 07:31:35;;;;;;;3.90;0.90;;;;;;;18.73;53.99;100257.34;5047676;28;20185;-64
2022/12/30 07:34:01;;;;;;;3.10;1.20;;;;;;;18.74;53.84;100259.81;4980936;28;20401;-65
2022/12/30 07:36:26;;;;;;;3.37;1.10;;;;;;;18.76;53.90;100251.69;5060198;28;20189;-65
2022/12/30 07:38:51;;;;;;;2.10;1.10;;;;;;;18.79;53.76;100248.06;5067331;28;20166;-65
2022/12/30 07:41:17;;;;;;;2.10;1.10;;;;;;;18.74;54.04;100254.09;5066601;28;20237;-66
2022/12/30 07:43:42;;;;;;;2.90;1.13;;;;;;;18.76;53.86;100245.16;4999378;28;20210;-65
2022/12/30 07:46:08;;;;;;;2.80;1.00;;;;;;;18.76;54.23;100245.97;5050345;28;20182;-65
2022/12/30 07:48:34;;;;;;;2.00;0.90;;;;;;;18.76;54.02;100245.97;5062386;28;20182;-65
2022/12/30 07:50:59;;;;;;;2.30;1.20;;;;;;;18.73;54.14;100248.75;4963364;28;20175;-64
2022/12/30 07:53:24;;;;;;;2.10;0.90;;;;;;;18.75;54.07;100241.44;4981070;28;20175;-65
2022/12/30 07:55:50;;;;;;;2.13;1.13;;;;;;;18.75;54.16;100238.59;5065598;28;20182;-65
2022/12/30 07:58:15;;;;;;;2.30;1.07;;;;;;;18.78;54.05;100240.69;5000927;28;20174;-65
2022/12/30 08:00:41;;;;;;;1.60;0.90;;;;;;;18.74;53.83;100242.66;4982299;28;20190;-64
2022/12/30 08:03:06;;;;;;;1.90;1.07;;;;;;;18.75;54.00;100241.44;5012896;28;20190;-65
2022/12/30 08:05:32;;;;;;;2.27;0.93;;;;;;;18.73;53.81;100241.03;5039226;28;20214;-65
2022/12/30 08:07:57;;;;;;;2.60;1.03;;;;;;;18.73;53.85;100246.75;5000590;28;20196;-65
2022/12/30 08:10:23;;;;;;;2.77;1.30;;;;;;;18.76;53.75;100228.78;5000618;28;20158;-64
2022/12/30 08:12:48;;;;;;;3.10;1.63;;;;;;;18.73;53.92;100221.00;4973928;28;20190;-65
2022/12/30 08:15:14;;;;;;;1.90;1.00;;;;;;;18.73;53.92;100221.00;5062715;28;20249;-65
2022/12/30 08:17:39;;;;;;;2.00;1.13;;;;;;;18.77;53.70;100201.84;5026248;28;20191;-65
2022/12/30 08:20:11;;;;;;;2.10;0.90;;;;;;;18.77;53.88;100206.75;5047481;28;20175;-64
2022/12/30 08:22:37;;;;;;;2.00;1.10;;;;;;;18.74;54.02;100201.78;5043725;28;20175;-65
2022/12/30 08:25:02;;;;;;;1.97;0.87;;;;;;;18.77;53.81;100198.97;5030442;28;20410;-65
2022/12/30 08:27:28;;;;;;;3.70;1.20;;;;;;;18.78;54.08;100194.09;4993409;28;20186;-64
2022/12/30 08:29:53;;;;;;;2.47;1.07;;;;;;;18.77;53.89;100195.31;5067969;28;20570;-65
2022/12/30 08:32:19;;;;;;;2.10;1.03;;;;;;;18.77;53.90;100193.25;5000439;28;20542;-65
2022/12/30 08:34:47;;;;;;;1.70;0.80;;;;;;;18.78;54.45;100189.22;5064718;28;20174;-65
2022/12/30 08:37:13;;;;;;;2.10;1.00;;;;;;;18.79;53.69;100181.44;4986506;28;20193;-65
2022/12/30 08:39:38;;;;;;;4.73;1.33;;;;;;;18.77;53.91;100181.81;4998298;28;20414;-65
2022/12/30 08:42:03;;;;;;;2.03;0.90;;;;;;;18.78;53.55;100186.34;5065239;28;20221;-65
2022/12/30 08:44:29;;;;;;;1.90;1.10;;;;;;;18.78;54.13;100180.63;5081944;28;20198;-65
2022/12/30 08:46:54;;;;;;;2.23;0.90;;;;;;;18.78;53.86;100174.06;5062344;28;20186;-64
2022/12/30 08:49:20;;;;;;;2.30;1.20;;;;;;;18.76;54.10;100171.59;5047945;28;20190;-64
2022/12/30 08:51:45;;;;;;;2.73;1.20;;;;;;;18.77;53.91;100164.66;4994758;28;20345;-64
2022/12/30 08:54:11;;;;;;;2.37;1.00;;;;;;;18.80;54.02;100163.91;5051814;28;20567;-64
2022/12/30 08:56:37;;;;;;;2.23;1.27;;;;;;;18.75;53.77;100158.50;4997950;28;20182;-65
2022/12/30 08:59:02;;;;;;;1.87;0.97;;;;;;;18.71;54.03;100154.78;5051598;28;20186;-64
2022/12/30 09:01:29;;;;;;;2.13;1.00;;;;;;;18.73;54.17;100154.38;4980477;28;20182;-64
2022/12/30 09:03:55;;;;;;;1.73;0.97;;;;;;;18.74;54.05;100162.59;5053187;28;20219;-64
2022/12/30 09:06:22;;;;;;;3.30;1.17;;;;;;;18.72;53.74;100144.16;5063573;28;20413;-64
2022/12/30 09:08:48;;;;;;;2.67;1.10;;;;;;;18.72;54.13;100147.84;5059296;28;20186;-65
2022/12/30 09:11:15;;;;;;;2.33;1.03;;;;;;;18.74;53.91;100138.88;4982008;28;20481;-64
2022/12/30 09:13:41;;;;;;;2.20;0.90;;;;;;;18.76;54.15;100143.00;4986998;28;20424;-65
2022/12/30 09:16:08;;;;;;;2.50;1.23;;;;;;;18.79;53.85;100136.53;5070597;28;20459;-64
2022/12/30 09:18:34;;;;;;;2.63;1.37;;;;;;;18.75;53.97;100129.91;5067159;28;20233;-64
2022/12/30 09:21:00;;;;;;;1.90;0.80;;;;;;;18.77;53.76;100127.47;5050966;28;20441;-64
2022/12/30 09:23:25;;;;;;;1.93;0.87;;;;;;;18.75;53.95;100131.94;5049649;28;20217;-64
2022/12/30 09:25:50;;;;;;;2.40;1.10;;;;;;;18.78;53.84;100123.44;4984821;28;20179;-64
2022/12/30 09:28:16;;;;;;;1.73;0.90;;;;;;;18.77;53.97;100118.91;4983352;28;20182;-64
2022/12/30 09:30:41;;;;;;;2.07;0.87;;;;;;;18.76;53.82;100120.13;4992389;28;20174;-64
2022/12/30 09:33:07;;;;;;;1.90;0.93;;;;;;;18.76;54.02;100120.13;5050289;28;20182;-64
2022/12/30 09:35:32;;;;;;;2.30;1.10;;;;;;;18.81;54.05;100111.19;5049924;28;20217;-64
2022/12/30 09:37:58;;;;;;;1.80;1.10;;;;;;;18.78;53.89;100106.28;5051812;28;20182;-64
2022/12/30 09:40:59;;;;;;;2.40;1.20;;;;;;;18.81;53.87;100091.19;5049732;28;20592;-64
2022/12/30 09:43:42;;;;;;;2.70;1.07;;;;;;;18.78;54.10;100091.97;4992650;28;20224;-64
2022/12/30 09:46:07;;;;;;;2.27;1.10;;;;;;;18.80;53.84;100086.69;5097127;28;20428;-64
2022/12/30 09:48:39;;;;;;;1.60;0.83;;;;;;;18.80;53.91;100086.69;5066417;28;20448;-65
2022/12/30 09:51:06;;;;;;;2.20;1.00;;;;;;;18.78;53.94;100077.69;5049038;28;20174;-64
2022/12/30 09:53:40;;;;;;;1.87;0.80;;;;;;;18.81;53.82;100076.88;5049594;28;20504;-65
2022/12/30 09:56:29;;;;;;;2.10;0.90;;;;;;;18.79;53.88;100073.59;4982506;28;20421;-64
2022/12/30 09:58:54;;;;;;;2.00;0.80;;;;;;;18.82;54.17;100058.50;5048729;28;20450;-65
2022/12/30 10:01:26;;;;;;;2.23;1.03;;;;;;;18.81;53.88;100048.28;5054162;28;20409;-65
2022/12/30 10:03:54;;;;;;;3.80;1.00;;;;;;;18.76;54.05;100048.63;5044380;28;20221;-65
2022/12/30 10:06:37;;;;;;;2.30;0.77;;;;;;;18.79;53.64;100050.72;5077125;28;20416;-66
2022/12/30 10:09:29;;;;;;;1.93;1.10;;;;;;;18.81;53.96;100044.63;5063087;28;20417;-65
2022/12/30 10:12:23;;;;;;;1.80;0.80;;;;;;;18.80;53.98;100055.22;5008473;28;20474;-66
2022/12/30 10:14:49;;;;;;;2.07;0.90;;;;;;;18.78;53.64;100059.69;5095823;28;20479;-65
2022/12/30 10:17:23;;;;;;;2.13;1.13;;;;;;;18.81;53.86;100051.13;5111800;28;20413;-66
2022/12/30 10:19:49;;;;;;;1.87;0.83;;;;;;;18.82;53.79;100063.41;5025877;28;20225;-65
2022/12/30 10:22:21;;;;;;;3.03;1.20;;;;;;;18.83;53.76;100063.03;4989401;28;20411;-65
2022/12/30 10:25:11;;;;;;;2.10;0.97;;;;;;;18.82;53.98;100058.50;5042155;28;20182;-65
2022/12/30 10:27:45;;;;;;;2.40;0.90;;;;;;;18.81;53.76;100044.63;5051920;28;20421;-65
2022/12/30 10:30:16;;;;;;;1.70;0.70;;;;;;;18.80;54.41;100034.34;5039450;28;20406;-66
2022/12/30 10:32:46;;;;;;;3.50;1.20;;;;;;;18.80;53.86;100040.91;5043451;28;20426;-65
2022/12/30 10:35:15;;;;;;;2.03;0.90;;;;;;;18.83;53.58;100022.16;5055393;28;20449;-66
2022/12/30 10:37:41;;;;;;;2.20;1.20;;;;;;;18.83;54.03;100016.44;5040763;28;20464;-65
2022/12/30 10:40:08;;;;;;;2.07;0.73;;;;;;;18.84;53.82;100010.34;5069641;28;20826;-65
2022/12/30 10:42:46;;;;;;;1.80;0.80;;;;;;;18.82;53.91;100012.75;5093619;28;20202;-66
2022/12/30 10:45:20;;;;;;;2.13;1.00;;;;;;;18.83;54.00;100011.56;5091657;28;20451;-64
2022/12/30 10:48:23;;;;;;;1.77;0.83;;;;;;;18.85;53.75;100003.38;5091638;28;20431;-66
2022/12/30 10:50:49;;;;;;;2.57;1.03;;;;;;;18.88;53.88;100010.38;5075834;28;20491;-64
2022/12/30 10:53:21;;;;;;;2.10;0.80;;;;;;;18.85;53.63;99994.81;5082051;28;20439;-65
2022/12/30 10:55:51;;;;;;;1.93;0.93;;;;;;;18.86;53.91;99982.16;5056045;28;20171;-65
2022/12/30 10:58:24;;;;;;;2.07;0.93;;;;;;;18.89;53.75;99989.13;5072763;28;20395;-63
2022/12/30 11:00:50;;;;;;;1.60;0.70;;;;;;;18.83;53.78;99980.09;5057224;28;20493;-62
2022/12/30 11:03:37;;;;;;;1.50;0.80;;;;;;;18.90;53.58;99980.16;5076336;28;20460;-63
2022/12/30 11:06:20;;;;;;;3.37;1.13;;;;;;;18.85;53.69;99977.66;5094256;28;20253;-64
2022/12/30 11:08:45;;;;;;;6.30;1.30;;;;;;;18.87;53.84;99977.25;5075874;28;20436;-64
2022/12/30 11:11:11;;;;;;;1.80;0.90;;;;;;;18.87;53.70;99978.06;5075854;28;20422;-66
2022/12/30 11:16:33;;;;;;;1.60;0.77;;;;;;;18.85;53.87;99963.34;5072968;28;20186;-66
2022/12/30 11:19:03;;;;;;;1.90;0.87;;;;;;;18.90;53.76;99965.03;5069233;28;20482;-63
2022/12/30 11:21:30;;;;;;;1.70;0.80;;;;;;;18.85;54.09;99959.66;5054695;28;20784;-63
2022/12/30 11:23:57;;;;;;;1.90;0.90;;;;;;;18.87;53.80;99958.03;5055338;28;21031;-62
2022/12/30 11:26:25;;;;;;;3.93;0.97;;;;;;;18.84;53.91;99967.44;5054164;28;20414;-62
2022/12/30 11:28:58;;;;;;;1.93;0.90;;;;;;;18.88;53.45;99956.03;5071509;28;20989;-64
2022/12/30 11:31:37;;;;;;;2.10;0.93;;;;;;;18.88;53.74;99951.13;5093799;28;20939;-64
2022/12/30 11:34:03;;;;;;;2.07;0.93;;;;;;;18.86;53.77;99947.81;5093515;28;20443;-63
2022/12/30 11:36:28;;;;;;;2.33;1.40;;;;;;;18.92;53.79;99945.44;5057339;28;20432;-65
2022/12/30 11:38:55;;;;;;;2.87;1.10;;;;;;;18.87;53.79;99940.88;5089504;28;20976;-63
2022/12/30 11:41:25;;;;;;;1.50;0.80;;;;;;;18.86;53.71;99939.25;5092637;28;20233;-63
2022/12/30 11:43:56;;;;;;;2.47;1.10;;;;;;;18.91;53.92;99943.81;5073600;28;20456;-69
2022/12/30 11:46:22;;;;;;;3.17;1.20;;;;;;;18.86;53.87;99942.09;5091523;28;20519;-65
2022/12/30 11:48:50;;;;;;;2.60;1.30;;;;;;;18.90;53.78;99930.69;5092729;28;20412;-66
2022/12/30 11:51:22;;;;;;;2.40;1.20;;;;;;;18.90;54.33;99925.81;5091514;28;20420;-67
2022/12/30 11:53:48;;;;;;;2.10;0.93;;;;;;;18.90;53.70;99928.66;5089577;28;20409;-66
2022/12/30 11:56:20;;;;;;;1.60;0.90;;;;;;;18.91;53.59;99921.72;5091803;28;21106;-67
2022/12/30 11:58:46;;;;;;;5.23;1.23;;;;;;;18.87;53.79;99920.06;5079995;28;20496;-65
2022/12/30 12:01:11;;;;;;;2.23;1.00;;;;;;;18.87;53.66;99915.16;5096532;28;20408;-65
2022/12/30 12:03:57;;;;;;;2.07;1.10;;;;;;;18.83;53.98;99900.00;5099702;28;20581;-65
2022/12/30 12:06:25;;;;;;;2.60;0.87;;;;;;;18.87;53.61;99885.75;5073339;28;20637;-68
2022/12/30 12:08:58;;;;;;;4.13;1.20;;;;;;;18.87;53.84;99883.69;5053612;28;20408;-67
2022/12/30 12:11:27;;;;;;;3.20;1.20;;;;;;;18.90;53.78;99880.03;5052617;28;20761;-67
2022/12/30 12:13:59;;;;;;;2.33;0.90;;;;;;;18.89;53.68;99871.84;5076645;28;20413;-67
2022/12/30 12:16:58;;;;;;;2.70;0.90;;;;;;;18.89;53.83;99889.84;5060249;28;20417;-67
2022/12/30 12:19:46;;;;;;;1.70;0.90;;;;;;;18.91;54.03;99881.69;5077394;28;20785;-67
2022/12/30 12:22:40;;;;;;;1.70;0.90;;;;;;;18.91;53.74;99881.69;5090758;28;20439;-67
2022/12/30 12:25:29;;;;;;;2.33;0.80;;;;;;;18.92;53.71;99882.53;5072569;28;20498;-67
2022/12/30 12:27:55;;;;;;;2.50;1.03;;;;;;;18.92;53.63;99860.44;5055771;28;20495;-67